Time;durP1;ratioP1;P1;durP2;ratioP2;P2;SDS_P1;SDS_P2;PMS_P1;PMS_P2;Temp;Humidity;BMP_temperature;BMP_pressure;BME280_temperature;BME280_humidity;BME280_pressure;Samples;Min_cycle;Max_cycle;Signal;HPM_P1;HPM_P2
2022/01/16 00:01:01;;;;;;;103.05;34.20;;;1.30;99.90;;;;;;5062950;28;20037;-53
2022/01/16 00:06:13;;;;;;;115.28;35.92;;;1.30;99.90;;;;;;5059060;28;20059;-57
2022/01/16 00:08:39;;;;;;;102.15;35.47;;;1.30;99.90;;;;;;5056260;28;20045;-53
2022/01/16 00:11:04;;;;;;;114.03;36.42;;;1.30;99.90;;;;;;5067537;28;20047;-51
2022/01/16 00:13:30;;;;;;;113.07;38.05;;;1.40;99.90;;;;;;5069514;28;20040;-53
2022/01/16 00:15:56;;;;;;;123.82;38.95;;;1.30;99.90;;;;;;5070486;28;20038;-53
2022/01/16 00:18:28;;;;;;;124.65;39.38;;;1.30;99.90;;;;;;5061012;28;20066;-51
2022/01/16 00:20:54;;;;;;;129.60;39.95;;;1.40;99.90;;;;;;5092612;28;20052;-55
2022/01/16 00:23:25;;;;;;;125.80;40.67;;;1.30;99.90;;;;;;5081526;28;20056;-51
2022/01/16 00:25:53;;;;;;;131.18;39.33;;;1.40;99.90;;;;;;5080327;28;20040;-56
2022/01/16 00:28:20;;;;;;;131.40;40.35;;;1.40;99.90;;;;;;5084414;28;20039;-57
2022/01/16 00:30:47;;;;;;;135.90;42.03;;;1.40;99.90;;;;;;5088996;28;20182;-53
2022/01/16 00:33:13;;;;;;;136.88;41.95;;;1.50;99.90;;;;;;5086662;28;20051;-54
2022/01/16 00:35:38;;;;;;;128.90;40.17;;;1.60;99.90;;;;;;5081371;28;20112;-53
2022/01/16 00:38:05;;;;;;;139.65;43.20;;;1.50;99.90;;;;;;5086323;28;20058;-53
2022/01/16 00:40:31;;;;;;;130.25;40.63;;;1.50;99.90;;;;;;5083115;28;20037;-55
2022/01/16 00:42:57;;;;;;;140.38;43.83;;;1.50;99.90;;;;;;5084828;28;20540;-55
2022/01/16 00:45:23;;;;;;;121.82;40.65;;;1.50;99.90;;;;;;5089652;28;20028;-55
2022/01/16 00:47:49;;;;;;;132.13;41.85;;;1.50;99.90;;;;;;5086763;28;20047;-54
2022/01/16 00:50:15;;;;;;;136.90;41.80;;;1.50;99.90;;;;;;5088923;28;20048;-55
2022/01/16 00:52:41;;;;;;;135.68;41.33;;;1.50;99.90;;;;;;5090073;28;20036;-55
2022/01/16 00:55:07;;;;;;;136.90;42.70;;;1.50;99.90;;;;;;5091309;28;20173;-55
2022/01/16 00:57:33;;;;;;;137.32;40.72;;;1.50;99.90;;;;;;5083029;28;20052;-55
2022/01/16 00:59:59;;;;;;;130.63;37.97;;;1.50;99.90;;;;;;5090966;28;20051;-55
2022/01/16 01:02:25;;;;;;;132.95;38.88;;;1.50;99.90;;;;;;5073783;28;20033;-56
2022/01/16 01:04:51;;;;;;;130.63;40.45;;;1.40;99.90;;;;;;5088072;28;20044;-56
2022/01/16 01:07:16;;;;;;;137.43;40.70;;;1.40;99.90;;;;;;5070984;28;20430;-56
2022/01/16 01:09:42;;;;;;;160.80;42.65;;;1.40;99.90;;;;;;5076507;28;20036;-55
2022/01/16 01:12:10;;;;;;;152.00;42.63;;;1.40;99.90;;;;;;5088262;28;20407;-55
2022/01/16 01:14:53;;;;;;;152.98;42.53;;;1.40;99.90;;;;;;5090488;28;20036;-53
2022/01/16 01:17:24;;;;;;;158.15;43.28;;;1.40;99.90;;;;;;5086457;28;20056;-53
2022/01/16 01:19:49;;;;;;;152.98;41.95;;;1.40;99.90;;;;;;5083794;28;20052;-55
2022/01/16 01:22:15;;;;;;;157.13;42.90;;;1.40;99.90;;;;;;5085952;28;20047;-55
2022/01/16 01:24:41;;;;;;;160.95;42.42;;;1.40;99.90;;;;;;5088046;28;20072;-56
2022/01/16 01:27:20;;;;;;;148.35;42.13;;;1.50;99.90;;;;;;5083801;28;20526;-52
2022/01/16 01:29:54;;;;;;;143.68;41.38;;;1.50;99.90;;;;;;5086873;28;20045;-53
2022/01/16 01:32:20;;;;;;;158.02;42.85;;;1.50;99.90;;;;;;5083926;28;20040;-53
2022/01/16 01:34:46;;;;;;;166.48;43.03;;;1.50;99.90;;;;;;5086704;28;20047;-53
2022/01/16 01:37:12;;;;;;;169.25;42.50;;;1.60;99.90;;;;;;5078893;28;20051;-53
2022/01/16 01:39:37;;;;;;;183.25;43.40;;;1.50;99.90;;;;;;5087818;28;20036;-53
2022/01/16 01:42:08;;;;;;;186.50;44.58;;;1.50;99.90;;;;;;5089344;28;20150;-54
2022/01/16 01:52:52;;;;;;;193.80;45.92;;;1.50;99.90;;;;;;5078260;28;20075;-54
2022/01/16 01:55:18;;;;;;;209.95;47.90;;;1.50;99.90;;;;;;5075089;28;20063;-53
2022/01/16 01:57:44;;;;;;;218.32;47.50;;;1.50;99.90;;;;;;5089361;28;20471;-57
2022/01/16 02:00:17;;;;;;;234.63;47.13;;;1.50;99.90;;;;;;5085237;28;20460;-53
2022/01/16 02:05:26;;;;;;;246.75;49.28;;;1.50;99.90;;;;;;5089181;28;20040;-52
2022/01/16 02:07:52;;;;;;;296.85;50.50;;;1.50;99.90;;;;;;5090622;28;20057;-55
2022/01/16 02:10:18;;;;;;;264.17;50.72;;;1.50;99.90;;;;;;5078289;28;20044;-55
2022/01/16 02:12:45;;;;;;;308.05;53.10;;;1.50;99.90;;;;;;5075360;28;20040;-54
2022/01/16 02:34:39;;;;;;;256.00;48.92;;;1.50;99.90;;;;;;5066252;28;20111;-54
2022/01/16 02:37:08;;;;;;;259.33;48.67;;;1.50;99.90;;;;;;5054363;28;20171;-52
2022/01/16 02:39:37;;;;;;;246.63;49.25;;;1.80;99.90;;;;;;5060953;28;20075;-52
2022/01/16 02:42:07;;;;;;;257.73;48.95;;;1.50;99.90;;;;;;5068376;28;20564;-54
2022/01/16 02:44:42;;;;;;;267.90;48.15;;;1.60;99.90;;;;;;5069649;28;20033;-55
2022/01/16 02:47:11;;;;;;;251.95;49.15;;;1.90;99.90;;;;;;5060454;28;20049;-55
2022/01/16 02:49:40;;;;;;;264.60;50.85;;;1.60;99.90;;;;;;5060727;28;20068;-54
2022/01/16 02:52:11;;;;;;;256.85;48.83;;;1.60;99.90;;;;;;5053597;28;20040;-53
2022/01/16 02:54:40;;;;;;;293.42;54.80;;;1.60;99.90;;;;;;5056920;28;20047;-55
2022/01/16 02:57:12;;;;;;;248.23;48.00;;;1.60;99.90;;;;;;5069196;28;20048;-58
2022/01/16 02:59:39;;;;;;;253.50;48.10;;;1.60;99.90;;;;;;5059359;28;20051;-56
2022/01/16 03:02:06;;;;;;;270.73;51.33;;;1.60;99.90;;;;;;5056095;28;20403;-51
2022/01/16 03:04:32;;;;;;;263.55;49.92;;;1.70;99.90;;;;;;5057550;28;20128;-56
2022/01/16 03:06:59;;;;;;;251.25;50.10;;;1.70;99.90;;;;;;5071919;28;20040;-55
2022/01/16 03:09:29;;;;;;;272.73;51.50;;;1.70;99.90;;;;;;5037548;28;20482;-56
2022/01/16 03:11:54;;;;;;;263.42;52.08;;;1.70;99.90;;;;;;5071414;28;20487;-55
2022/01/16 03:14:21;;;;;;;231.70;50.45;;;1.70;99.90;;;;;;5042928;28;20071;-57
2022/01/16 03:16:50;;;;;;;223.10;47.80;;;1.80;99.90;;;;;;5072976;28;20127;-53
2022/01/16 03:22:03;;;;;;;223.55;46.83;;;1.80;99.90;;;;;;5091593;28;20178;-55
2022/01/16 03:24:29;;;;;;;226.68;48.83;;;1.80;99.90;;;;;;5092914;28;20044;-54
2022/01/16 03:27:09;;;;;;;230.95;49.78;;;1.80;99.90;;;;;;5091401;28;20115;-55
2022/01/16 03:29:35;;;;;;;231.93;49.60;;;1.80;99.90;;;;;;5091564;28;20036;-55
2022/01/16 03:32:05;;;;;;;204.75;46.50;;;1.90;99.90;;;;;;5092952;28;20093;-52
2022/01/16 03:34:30;;;;;;;248.52;52.20;;;1.90;99.90;;;;;;5085444;28;20350;-56
2022/01/16 03:36:56;;;;;;;214.75;49.25;;;1.90;99.90;;;;;;5084318;28;20035;-52
2022/01/16 03:39:22;;;;;;;232.52;50.22;;;1.90;99.90;;;;;;5088627;28;20036;-57
2022/01/16 03:41:48;;;;;;;199.43;47.70;;;2.00;99.90;;;;;;5091196;28;20036;-54
2022/01/16 03:44:14;;;;;;;228.95;50.42;;;2.00;99.90;;;;;;5090687;28;20101;-53
2022/01/16 03:46:42;;;;;;;237.80;50.97;;;2.00;99.90;;;;;;5089684;28;20072;-56
2022/01/16 03:49:19;;;;;;;228.90;50.47;;;2.10;99.90;;;;;;5084240;28;20044;-56
2022/01/16 03:51:47;;;;;;;221.10;50.88;;;2.00;99.90;;;;;;5092571;28;20032;-54
2022/01/16 03:54:15;;;;;;;219.90;49.75;;;2.10;99.90;;;;;;5079424;28;20036;-56
2022/01/16 03:56:41;;;;;;;214.57;49.65;;;2.10;99.90;;;;;;5076758;28;20032;-55
2022/01/16 03:59:09;;;;;;;208.77;49.28;;;2.10;99.90;;;;;;5079371;28;20039;-53
2022/01/16 04:01:34;;;;;;;214.63;48.80;;;2.10;99.90;;;;;;5077573;28;20067;-52
2022/01/16 04:04:00;;;;;;;223.77;51.42;;;2.10;99.90;;;;;;5087933;28;20048;-55
2022/01/16 04:06:26;;;;;;;209.98;49.22;;;2.20;99.90;;;;;;5085360;28;20115;-53
2022/01/16 04:08:53;;;;;;;207.65;49.72;;;2.20;99.90;;;;;;5092381;28;20048;-55
2022/01/16 04:11:20;;;;;;;217.13;50.80;;;2.20;99.90;;;;;;5088684;28;20433;-50
2022/01/16 04:13:52;;;;;;;201.05;49.10;;;2.20;99.90;;;;;;5071590;28;20402;-53
2022/01/16 04:16:23;;;;;;;223.70;50.70;;;2.20;99.90;;;;;;5074678;28;20500;-54
2022/01/16 04:18:52;;;;;;;216.10;50.13;;;2.20;99.90;;;;;;5088413;28;20050;-54
2022/01/16 04:21:24;;;;;;;233.18;52.25;;;2.20;99.90;;;;;;5084037;28;20052;-56
2022/01/16 04:23:50;;;;;;;214.07;50.75;;;2.30;99.90;;;;;;5087997;28;20032;-56
2022/01/16 04:26:17;;;;;;;206.73;49.05;;;2.30;99.90;;;;;;5091867;28;20036;-55
2022/01/16 04:28:43;;;;;;;207.82;50.40;;;2.30;99.90;;;;;;5090368;28;20036;-56
2022/01/16 04:31:09;;;;;;;215.35;53.10;;;2.30;99.90;;;;;;5071595;28;20032;-54
2022/01/16 04:33:35;;;;;;;210.50;48.88;;;2.30;99.90;;;;;;5090384;28;20118;-54
2022/01/16 04:36:02;;;;;;;216.30;50.28;;;2.40;99.90;;;;;;5079319;28;20056;-53
2022/01/16 04:38:27;;;;;;;199.07;48.40;;;2.40;99.90;;;;;;5083179;28;20098;-54
2022/01/16 04:43:47;;;;;;;190.35;47.42;;;2.40;99.90;;;;;;5086819;28;20154;-54
2022/01/16 04:46:24;;;;;;;211.63;48.33;;;2.40;99.90;;;;;;5085766;28;20503;-53
2022/01/16 04:48:51;;;;;;;197.82;48.33;;;2.40;99.90;;;;;;5080566;28;20467;-52
2022/01/16 04:51:18;;;;;;;196.55;47.40;;;2.40;99.90;;;;;;5091415;28;20031;-55
2022/01/16 04:53:44;;;;;;;207.00;48.30;;;2.40;99.90;;;;;;5072094;28;20040;-54
2022/01/16 04:56:11;;;;;;;207.20;48.22;;;2.40;99.90;;;;;;5070985;28;20558;-53
2022/01/16 04:58:38;;;;;;;195.30;45.75;;;2.40;99.90;;;;;;5080876;28;20054;-56
2022/01/16 05:01:04;;;;;;;228.88;50.53;;;2.50;99.90;;;;;;5062591;28;20535;-57
2022/01/16 05:03:31;;;;;;;213.60;51.88;;;2.50;99.90;;;;;;5086451;28;20063;-55
2022/01/16 05:05:58;;;;;;;221.82;50.75;;;2.50;99.90;;;;;;5087593;28;20036;-53
2022/01/16 05:08:24;;;;;;;238.25;52.72;;;2.50;99.90;;;;;;5087940;28;20075;-54
2022/01/16 05:10:54;;;;;;;214.35;51.92;;;2.50;99.90;;;;;;5077301;28;20032;-55
2022/01/16 05:18:35;;;;;;;239.20;53.22;;;2.60;99.90;;;;;;5089438;28;20063;-52
2022/01/16 05:21:02;;;;;;;216.00;49.75;;;2.60;99.90;;;;;;5086867;28;20047;-54
2022/01/16 05:23:28;;;;;;;238.45;51.88;;;2.60;99.90;;;;;;5089260;28;20066;-54
2022/01/16 05:25:54;;;;;;;228.52;51.30;;;2.60;99.90;;;;;;5086578;28;20051;-54
2022/01/16 05:28:20;;;;;;;231.48;52.65;;;2.70;99.90;;;;;;5078129;28;20041;-53
2022/01/16 05:30:46;;;;;;;238.52;52.85;;;2.70;99.90;;;;;;5076478;28;20476;-57
2022/01/16 05:33:12;;;;;;;233.95;52.17;;;2.70;99.90;;;;;;5054758;28;20040;-56
2022/01/16 05:35:38;;;;;;;239.30;51.55;;;2.70;99.90;;;;;;5087296;28;20391;-53
2022/01/16 05:38:03;;;;;;;230.20;52.40;;;2.70;99.90;;;;;;5087800;28;20093;-55
2022/01/16 05:40:29;;;;;;;249.43;53.40;;;2.70;99.90;;;;;;5053914;28;20067;-54
2022/01/16 05:42:55;;;;;;;238.18;53.55;;;2.70;99.90;;;;;;5086276;28;20039;-57
2022/01/16 05:45:21;;;;;;;240.40;54.00;;;2.80;99.90;;;;;;5092815;28;20032;-58
2022/01/16 05:47:47;;;;;;;246.40;53.53;;;2.70;99.90;;;;;;5090456;28;20036;-53
2022/01/16 05:50:13;;;;;;;248.77;52.97;;;2.80;99.90;;;;;;5092645;28;20101;-57
2022/01/16 05:52:40;;;;;;;228.05;49.67;;;2.80;99.90;;;;;;5090025;28;20051;-57
2022/01/16 05:55:06;;;;;;;237.20;51.25;;;2.80;99.90;;;;;;5081324;28;20036;-53
2022/01/16 05:57:32;;;;;;;248.80;54.85;;;2.80;99.90;;;;;;5083178;28;20078;-54
2022/01/16 05:59:58;;;;;;;250.23;52.45;;;2.80;99.90;;;;;;5082732;28;20080;-53
2022/01/16 06:02:27;;;;;;;236.48;51.45;;;2.80;99.90;;;;;;5080543;28;20055;-55
2022/01/16 06:04:53;;;;;;;241.63;52.47;;;2.80;99.90;;;;;;5086821;28;20036;-53
2022/01/16 06:07:19;;;;;;;226.95;53.25;;;2.90;99.90;;;;;;5091211;28;20398;-55
2022/01/16 06:09:45;;;;;;;248.18;52.65;;;2.90;99.90;;;;;;5092186;28;20059;-55
2022/01/16 06:12:11;;;;;;;234.77;50.35;;;4.30;99.90;;;;;;5093165;28;20518;-55
2022/01/16 06:14:37;;;;;;;246.02;53.35;;;2.90;99.90;;;;;;5093774;28;20043;-53
2022/01/16 06:17:03;;;;;;;243.52;55.45;;;2.90;99.90;;;;;;5092953;28;20701;-53
2022/01/16 06:19:29;;;;;;;248.70;55.30;;;2.90;99.90;;;;;;5080901;28;20048;-55
2022/01/16 06:21:55;;;;;;;244.88;53.40;;;3.00;99.90;;;;;;5074823;28;20044;-54
2022/01/16 06:24:21;;;;;;;248.25;51.92;;;3.00;99.90;;;;;;5079292;28;20070;-54
2022/01/16 06:26:49;;;;;;;249.07;54.80;;;3.00;99.90;;;;;;5079679;28;20097;-54
2022/01/16 06:29:15;;;;;;;221.25;52.78;;;3.00;99.90;;;;;;5059497;28;21145;-56
2022/01/16 06:31:41;;;;;;;261.42;54.28;;;3.00;99.90;;;;;;5087031;28;20139;-56
2022/01/16 06:34:07;;;;;;;235.75;53.47;;;3.00;99.90;;;;;;5091885;28;20124;-55
2022/01/16 06:36:35;;;;;;;249.25;55.13;;;3.10;99.90;;;;;;5090635;28;20032;-56
2022/01/16 06:39:02;;;;;;;231.68;54.85;;;3.10;99.90;;;;;;5092578;28;20044;-56
2022/01/16 06:41:28;;;;;;;259.33;55.47;;;3.10;99.90;;;;;;5091901;28;20497;-55
2022/01/16 06:43:54;;;;;;;260.27;55.50;;;3.10;99.90;;;;;;5092117;28;20070;-55
2022/01/16 06:46:19;;;;;;;253.50;55.47;;;3.10;99.90;;;;;;5070036;28;20045;-53
2022/01/16 06:48:45;;;;;;;243.60;54.97;;;3.10;99.90;;;;;;5089658;28;20060;-56
2022/01/16 06:51:11;;;;;;;237.98;53.42;;;3.20;99.90;;;;;;5088009;28;20039;-50
2022/01/16 06:53:36;;;;;;;249.77;53.15;;;3.20;99.90;;;;;;5090330;28;20857;-55
2022/01/16 06:56:03;;;;;;;251.60;56.30;;;3.20;99.90;;;;;;5092172;28;20032;-51
2022/01/16 06:58:29;;;;;;;241.25;54.03;;;3.20;99.90;;;;;;5090498;28;20043;-55
2022/01/16 07:00:54;;;;;;;244.15;54.75;;;3.30;99.90;;;;;;5092041;28;20043;-53
2022/01/16 07:03:20;;;;;;;248.85;56.15;;;3.20;99.90;;;;;;5091884;28;20401;-57
2022/01/16 07:05:46;;;;;;;236.15;54.83;;;3.30;99.90;;;;;;5092319;28;20036;-51
2022/01/16 07:08:12;;;;;;;237.10;56.85;;;3.30;99.90;;;;;;5074227;28;20076;-55
2022/01/16 07:10:38;;;;;;;248.35;57.13;;;3.30;99.90;;;;;;5071911;28;20127;-56
2022/01/16 07:13:04;;;;;;;246.43;56.25;;;3.30;99.90;;;;;;5080682;28;20072;-51
2022/01/16 07:15:30;;;;;;;247.48;57.75;;;3.30;99.90;;;;;;5093486;28;20044;-54
2022/01/16 07:17:57;;;;;;;239.55;57.50;;;3.30;99.90;;;;;;5078343;28;20498;-55
2022/01/16 07:20:23;;;;;;;236.98;57.03;;;3.40;99.90;;;;;;5074921;28;20452;-55
2022/01/16 07:22:49;;;;;;;258.75;58.42;;;3.60;99.90;;;;;;5092834;28;20062;-55
2022/01/16 07:25:15;;;;;;;237.45;57.50;;;3.40;99.90;;;;;;5091858;28;20533;-56
2022/01/16 07:27:41;;;;;;;236.73;56.50;;;3.40;99.90;;;;;;5093106;28;20122;-53
2022/01/16 07:30:08;;;;;;;249.52;59.03;;;3.40;99.90;;;;;;5080289;28;20072;-50
2022/01/16 07:32:34;;;;;;;250.23;57.25;;;3.40;99.90;;;;;;5079070;28;20037;-54
2022/01/16 07:34:59;;;;;;;248.90;57.60;;;3.30;99.90;;;;;;5090110;28;20036;-57
2022/01/16 07:37:25;;;;;;;257.27;56.42;;;3.40;99.90;;;;;;5091770;28;20042;-52
2022/01/16 07:39:51;;;;;;;240.80;58.83;;;3.40;99.90;;;;;;5087181;28;20495;-54
2022/01/16 07:42:17;;;;;;;241.63;57.67;;;3.40;99.90;;;;;;5091577;28;20036;-56
2022/01/16 07:44:42;;;;;;;236.45;58.60;;;3.60;99.90;;;;;;5092501;28;20048;-54
2022/01/16 07:47:08;;;;;;;236.95;58.13;;;3.50;99.90;;;;;;5085324;28;20483;-55
2022/01/16 07:49:34;;;;;;;223.10;58.28;;;3.50;99.90;;;;;;5092321;28;20065;-57
2022/01/16 07:52:00;;;;;;;242.07;56.92;;;3.50;99.90;;;;;;5065885;28;20059;-53
2022/01/16 07:54:25;;;;;;;222.23;56.58;;;3.50;99.90;;;;;;5076421;28;20028;-56
2022/01/16 07:56:51;;;;;;;225.40;59.70;;;3.60;99.90;;;;;;5092674;28;20556;-53
2022/01/16 07:59:17;;;;;;;231.27;59.55;;;3.60;99.90;;;;;;5078371;28;20047;-55
2022/01/16 08:01:43;;;;;;;223.02;58.22;;;3.60;99.90;;;;;;5083900;28;20071;-54
2022/01/16 08:04:09;;;;;;;225.65;59.10;;;3.60;99.90;;;;;;5089573;28;20055;-56
2022/01/16 08:06:35;;;;;;;208.38;56.55;;;3.60;99.90;;;;;;5086907;28;20046;-51
2022/01/16 08:09:01;;;;;;;223.82;59.33;;;3.60;99.90;;;;;;5086437;28;20120;-55
2022/01/16 08:11:27;;;;;;;200.50;56.20;;;3.60;99.90;;;;;;5090759;28;20032;-56
2022/01/16 08:13:52;;;;;;;203.27;56.05;;;3.60;99.90;;;;;;5088826;28;20039;-55
2022/01/16 08:16:18;;;;;;;189.07;53.05;;;3.70;99.90;;;;;;5090926;28;20039;-53
2022/01/16 08:18:44;;;;;;;200.98;54.00;;;3.70;99.90;;;;;;5091595;28;20566;-56
2022/01/16 08:21:09;;;;;;;198.75;56.60;;;3.70;99.90;;;;;;5092073;28;20052;-53
2022/01/16 08:23:35;;;;;;;179.18;54.30;;;3.70;99.90;;;;;;5075066;28;20075;-52
2022/01/16 08:26:01;;;;;;;189.32;53.65;;;3.80;99.90;;;;;;5059727;28;20410;-56
2022/01/16 08:28:27;;;;;;;172.40;52.25;;;3.70;99.90;;;;;;5088284;28;20040;-56
2022/01/16 08:30:53;;;;;;;175.80;51.92;;;3.80;99.90;;;;;;5091852;28;20038;-52
2022/01/16 08:33:18;;;;;;;166.10;52.10;;;3.80;99.90;;;;;;5090455;28;20036;-57
2022/01/16 08:35:44;;;;;;;188.05;55.47;;;3.90;99.90;;;;;;5091728;28;20032;-52
2022/01/16 08:38:10;;;;;;;170.40;51.10;;;3.90;99.90;;;;;;5087469;28;20054;-56
2022/01/16 08:40:36;;;;;;;159.60;52.53;;;3.90;99.90;;;;;;5085913;28;20457;-55
2022/01/16 08:43:08;;;;;;;161.85;52.35;;;4.00;99.90;;;;;;5089576;28;20032;-55
2022/01/16 08:45:38;;;;;;;163.15;51.78;;;4.00;99.90;;;;;;5088650;28;20043;-55
2022/01/16 08:48:05;;;;;;;167.93;53.60;;;4.00;99.90;;;;;;5080450;28;20111;-54
2022/01/16 08:50:32;;;;;;;159.20;51.58;;;4.00;99.90;;;;;;5086750;28;20079;-55
2022/01/16 08:52:58;;;;;;;152.70;51.13;;;4.00;99.90;;;;;;5078070;28;20043;-57
2022/01/16 08:55:24;;;;;;;148.85;51.30;;;4.10;99.90;;;;;;5088474;28;20064;-53
2022/01/16 08:57:49;;;;;;;159.15;51.35;;;4.10;99.90;;;;;;5066381;28;20076;-54
2022/01/16 09:00:15;;;;;;;159.95;51.35;;;4.10;99.90;;;;;;5090113;28;20047;-51
2022/01/16 09:02:41;;;;;;;147.20;49.90;;;4.10;99.90;;;;;;5086971;28;20482;-52
2022/01/16 09:05:07;;;;;;;144.57;51.55;;;4.10;99.90;;;;;;5085631;28;20047;-53
2022/01/16 09:07:33;;;;;;;147.70;51.65;;;4.10;99.90;;;;;;5088193;28;20104;-53
2022/01/16 09:10:00;;;;;;;141.57;50.08;;;4.10;99.90;;;;;;5073502;28;20119;-56
2022/01/16 09:12:27;;;;;;;154.68;52.08;;;4.10;99.90;;;;;;5076289;28;20036;-53
2022/01/16 09:14:53;;;;;;;145.45;52.05;;;4.10;99.90;;;;;;5086094;28;20028;-55
2022/01/16 09:17:19;;;;;;;144.18;51.78;;;4.10;99.90;;;;;;5080176;28;20061;-56
2022/01/16 09:19:46;;;;;;;143.95;50.88;;;4.20;99.90;;;;;;5084804;28;20102;-55
2022/01/16 09:22:11;;;;;;;135.98;50.83;;;4.20;99.90;;;;;;5073425;28;20052;-56
2022/01/16 09:24:37;;;;;;;132.48;49.40;;;4.20;99.90;;;;;;5079240;28;20031;-55
2022/01/16 09:27:03;;;;;;;143.43;51.30;;;4.20;99.90;;;;;;5080841;28;20032;-56
2022/01/16 09:29:30;;;;;;;138.57;51.45;;;4.20;99.90;;;;;;5082825;28;20072;-53
2022/01/16 09:31:57;;;;;;;137.85;51.08;;;4.20;99.90;;;;;;5088462;28;20517;-52
2022/01/16 09:34:22;;;;;;;134.98;50.05;;;4.30;99.90;;;;;;5091102;28;20040;-55
2022/01/16 09:36:48;;;;;;;122.55;48.85;;;4.30;99.90;;;;;;5074237;28;20374;-56
2022/01/16 09:39:14;;;;;;;123.57;48.50;;;4.30;99.90;;;;;;5073495;28;20040;-55
2022/01/16 09:41:43;;;;;;;128.90;49.65;;;4.30;99.90;;;;;;5074294;28;20083;-55
2022/01/16 09:44:09;;;;;;;124.03;48.78;;;4.30;99.90;;;;;;5090210;28;20032;-54
2022/01/16 09:46:35;;;;;;;119.07;47.58;;;4.30;99.90;;;;;;5081041;28;20127;-53
2022/01/16 09:49:02;;;;;;;113.03;45.95;;;4.30;99.90;;;;;;5076396;28;20049;-54
2022/01/16 09:51:30;;;;;;;123.35;48.22;;;4.30;99.90;;;;;;5070695;28;20055;-56
2022/01/16 09:53:56;;;;;;;110.35;43.85;;;4.30;99.90;;;;;;5073920;28;20028;-55
2022/01/16 09:56:22;;;;;;;97.05;42.45;;;4.40;99.90;;;;;;5090615;28;20058;-54
2022/01/16 09:58:48;;;;;;;106.85;41.75;;;4.40;99.90;;;;;;5088815;28;20040;-53
2022/01/16 10:01:14;;;;;;;90.03;38.15;;;4.50;99.90;;;;;;5076026;28;20028;-55
2022/01/16 10:03:42;;;;;;;85.18;37.78;;;4.50;99.90;;;;;;5080591;28;20554;-54
2022/01/16 10:06:21;;;;;;;78.22;35.28;;;4.50;99.90;;;;;;5081597;28;20032;-54
2022/01/16 10:08:48;;;;;;;77.15;35.78;;;4.60;99.90;;;;;;5079160;28;20040;-56
2022/01/16 10:11:19;;;;;;;74.75;33.47;;;4.60;99.90;;;;;;5082893;28;20051;-55
2022/01/16 10:13:59;;;;;;;61.40;30.05;;;4.70;99.90;;;;;;5083766;28;20078;-54
2022/01/16 10:16:36;;;;;;;62.15;30.45;;;4.70;99.90;;;;;;5089916;28;20127;-53
2022/01/16 10:19:04;;;;;;;60.55;28.65;;;4.80;99.90;;;;;;5090134;28;20052;-56
2022/01/16 10:21:38;;;;;;;58.97;28.02;;;4.80;99.90;;;;;;5086560;28;20047;-56
2022/01/16 10:24:23;;;;;;;50.08;26.92;;;4.90;99.90;;;;;;5079924;28;20089;-52
2022/01/16 10:27:10;;;;;;;54.10;26.65;;;4.90;99.90;;;;;;5057120;28;20487;-53
2022/01/16 10:29:36;;;;;;;54.08;25.77;;;4.90;99.90;;;;;;5092044;28;20440;-55
2022/01/16 10:32:11;;;;;;;51.65;25.88;;;5.00;99.90;;;;;;5092840;28;20036;-56
2022/01/16 10:34:37;;;;;;;42.95;23.10;;;5.00;99.90;;;;;;5092597;28;20040;-53
2022/01/16 10:37:25;;;;;;;44.53;21.63;;;5.10;99.90;;;;;;5074399;28;20043;-57
2022/01/16 10:39:58;;;;;;;42.72;21.55;;;5.10;99.90;;;;;;5093035;28;20039;-55
2022/01/16 10:42:25;;;;;;;39.58;21.42;;;5.10;99.90;;;;;;5090118;28;20036;-55
2022/01/16 10:45:12;;;;;;;39.92;20.83;;;5.10;99.90;;;;;;5082904;28;20494;-54
2022/01/16 10:47:37;;;;;;;37.80;21.42;;;5.20;99.90;;;;;;5090571;28;20093;-53
2022/01/16 10:50:07;;;;;;;33.45;20.08;;;5.40;99.90;;;;;;5089807;28;20414;-56
2022/01/16 10:52:49;;;;;;;38.60;19.35;;;5.30;99.90;;;;;;5070063;28;20040;-57
2022/01/16 10:55:16;;;;;;;39.60;18.95;;;5.30;99.90;;;;;;5091330;28;20082;-54
2022/01/16 10:57:42;;;;;;;41.97;20.33;;;5.40;99.90;;;;;;5081493;28;20045;-55
2022/01/16 11:00:13;;;;;;;34.65;19.45;;;5.40;99.90;;;;;;5082488;28;20114;-56
2022/01/16 11:02:41;;;;;;;38.03;19.85;;;5.40;99.90;;;;;;5089215;28;20043;-54
2022/01/16 11:05:16;;;;;;;35.83;19.05;;;5.40;99.90;;;;;;5074843;28;20044;-54
2022/01/16 11:07:42;;;;;;;32.70;17.85;;;5.50;99.90;;;;;;5089645;28;20513;-55
2022/01/16 11:10:31;;;;;;;33.53;18.20;;;5.50;99.90;;;;;;5093076;28;20066;-58
2022/01/16 11:13:03;;;;;;;33.75;17.75;;;5.50;99.90;;;;;;5053759;28;20048;-57
2022/01/16 11:15:30;;;;;;;31.38;15.88;;;5.50;99.90;;;;;;5092825;28;20548;-53
2022/01/16 11:17:56;;;;;;;32.60;16.88;;;5.50;99.90;;;;;;5092301;28;20092;-53
2022/01/16 11:20:28;;;;;;;32.88;16.90;;;5.50;99.90;;;;;;5089880;28;20528;-53
2022/01/16 11:25:33;;;;;;;34.83;16.10;;;5.60;99.90;;;;;;5093340;28;20076;-56
2022/01/16 11:28:02;;;;;;;32.05;16.67;;;5.60;99.90;;;;;;5092247;28;20096;-54
2022/01/16 11:30:33;;;;;;;30.20;14.90;;;5.60;99.90;;;;;;5091289;28;20040;-54
2022/01/16 11:32:59;;;;;;;30.95;14.82;;;5.70;99.90;;;;;;5074688;28;20043;-57
2022/01/16 11:35:27;;;;;;;27.90;14.40;;;5.70;99.90;;;;;;5092908;28;20035;-53
2022/01/16 11:37:53;;;;;;;28.08;12.57;;;5.70;99.90;;;;;;5082676;28;20071;-56
2022/01/16 11:40:20;;;;;;;25.65;12.80;;;5.80;99.90;;;;;;5072309;28;20106;-56
2022/01/16 11:43:14;;;;;;;29.20;10.15;;;5.90;99.90;;;;;;5085736;28;20487;-53
2022/01/16 11:46:21;;;;;;;24.75;10.27;;;5.90;99.90;;;;;;5093003;28;20083;-53
2022/01/16 11:48:47;;;;;;;23.00;10.10;;;6.00;99.90;;;;;;5072582;28;20111;-52
2022/01/16 11:51:35;;;;;;;21.60;9.43;;;6.10;99.90;;;;;;5072470;28;20444;-54
2022/01/16 11:54:15;;;;;;;22.08;9.18;;;6.20;99.90;;;;;;5074057;28;20047;-53
2022/01/16 11:56:41;;;;;;;16.08;8.82;;;6.20;99.90;;;;;;5091109;28;20431;-56
2022/01/16 11:59:34;;;;;;;20.92;8.70;;;6.40;99.90;;;;;;5077623;28;20097;-56
2022/01/16 12:02:08;;;;;;;21.38;9.48;;;6.30;99.90;;;;;;5089159;28;20105;-55
2022/01/16 12:04:34;;;;;;;23.48;9.73;;;6.40;99.90;;;;;;5075150;28;20047;-55
2022/01/16 12:07:02;;;;;;;19.50;9.15;;;6.40;99.90;;;;;;5072980;28;20388;-54
2022/01/16 12:09:38;;;;;;;22.20;9.32;;;6.40;99.90;;;;;;5076906;28;20040;-56
2022/01/16 12:12:24;;;;;;;18.98;8.88;;;6.50;99.90;;;;;;5089557;28;20036;-57
2022/01/16 12:15:15;;;;;;;17.70;8.90;;;6.50;99.90;;;;;;5082756;28;20037;-56
2022/01/16 12:17:43;;;;;;;22.90;9.20;;;6.50;99.90;;;;;;5090465;28;20040;-58
2022/01/16 12:20:15;;;;;;;19.67;8.35;;;6.60;99.90;;;;;;5089052;28;20060;-56
2022/01/16 12:23:00;;;;;;;20.92;9.25;;;6.60;99.90;;;;;;5089867;28;20059;-56
2022/01/16 12:25:44;;;;;;;22.02;8.77;;;6.60;99.90;;;;;;5090485;28;20036;-56
2022/01/16 12:28:10;;;;;;;16.45;8.10;;;6.60;99.90;;;;;;5090807;28;20159;-55
2022/01/16 12:30:59;;;;;;;15.27;7.90;;;6.60;99.90;;;;;;5091883;28;20089;-56
2022/01/16 12:33:37;;;;;;;18.25;8.40;;;6.70;99.90;;;;;;5073470;28;20032;-56
2022/01/16 12:36:08;;;;;;;16.10;7.68;;;6.70;99.90;;;;;;5092021;28;20035;-55
2022/01/16 12:38:46;;;;;;;17.38;8.27;;;6.70;99.90;;;;;;5092162;28;20485;-54
2022/01/16 12:41:16;;;;;;;20.33;8.57;;;6.70;99.90;;;;;;5087185;28;20032;-56
2022/01/16 12:43:49;;;;;;;21.17;8.70;;;6.80;99.90;;;;;;5083711;28;20110;-54
2022/01/16 12:46:24;;;;;;;18.27;8.40;;;6.70;99.90;;;;;;5088293;28;20444;-54
2022/01/16 12:48:52;;;;;;;17.17;7.35;;;6.70;99.90;;;;;;5090260;28;20067;-56
2022/01/16 12:51:20;;;;;;;18.08;7.70;;;6.70;99.90;;;;;;5091112;28;20085;-55
2022/01/16 12:53:49;;;;;;;21.33;8.27;;;6.70;99.90;;;;;;5091322;28;20040;-57
2022/01/16 12:56:24;;;;;;;21.55;8.43;;;6.70;99.90;;;;;;5089017;28;20040;-56
2022/01/16 12:58:56;;;;;;;19.42;7.72;;;6.80;99.90;;;;;;5089724;28;20079;-56
2022/01/16 13:01:23;;;;;;;18.17;7.22;;;6.80;99.90;;;;;;5091436;28;20043;-54
2022/01/16 13:03:48;;;;;;;14.65;6.85;;;6.80;99.90;;;;;;5087496;28;20101;-57
2022/01/16 13:06:27;;;;;;;17.45;7.07;;;6.80;99.90;;;;;;5089479;28;20032;-56
2022/01/16 13:09:03;;;;;;;14.85;7.43;;;6.80;99.90;;;;;;5089703;28;20075;-54
2022/01/16 13:11:35;;;;;;;14.68;7.47;;;6.80;99.90;;;;;;5090092;28;20089;-56
2022/01/16 13:14:02;;;;;;;16.95;7.00;;;6.80;99.90;;;;;;5090812;28;20036;-57
2022/01/16 13:16:34;;;;;;;18.13;7.20;;;6.80;99.90;;;;;;5089786;28;20048;-55
2022/01/16 13:19:11;;;;;;;21.00;6.93;;;6.80;99.90;;;;;;5072659;28;20803;-54
2022/01/16 13:21:49;;;;;;;17.25;7.32;;;6.80;99.90;;;;;;5091373;28;20662;-57
2022/01/16 13:24:28;;;;;;;18.85;8.35;;;6.80;99.90;;;;;;5086727;28;20101;-54